sensor_id;sensor_type;location;lat;lon;timestamp;P1;P2;P0
43479;PMS5003;29067;35.492;-97.520;2024-03-07T00:01:27;18;16;
43479;PMS5003;29067;35.492;-97.520;2024-03-07T00:03:54;18;15;
43479;PMS5003;29067;35.492;-97.520;2024-03-07T00:06:22;16;15;
43479;PMS5003;29067;35.492;-97.520;2024-03-07T00:08:50;14;14;
43479;PMS5003;29067;35.492;-97.520;2024-03-07T00:11:18;14;14;
43479;PMS5003;29067;35.492;-97.520;2024-03-07T00:13:46;14;14;
43479;PMS5003;29067;35.492;-97.520;2024-03-07T00:16:14;20;19;
43479;PMS5003;29067;35.492;-97.520;2024-03-07T00:18:43;16;16;
43479;PMS5003;29067;35.492;-97.520;2024-03-07T00:21:11;16;15;
43479;PMS5003;29067;35.492;-97.520;2024-03-07T00:23:39;19;17;
43479;PMS5003;29067;35.492;-97.520;2024-03-07T00:26:07;14;14;
43479;PMS5003;29067;35.492;-97.520;2024-03-07T00:28:35;14;13;
43479;PMS5003;29067;35.492;-97.520;2024-03-07T00:31:03;14;14;
43479;PMS5003;29067;35.492;-97.520;2024-03-07T00:33:31;16;15;
43479;PMS5003;29067;35.492;-97.520;2024-03-07T00:35:58;17;15;
43479;PMS5003;29067;35.492;-97.520;2024-03-07T00:38:27;14;14;
43479;PMS5003;29067;35.492;-97.520;2024-03-07T00:40:55;17;16;
43479;PMS5003;29067;35.492;-97.520;2024-03-07T00:43:23;13;13;
43479;PMS5003;29067;35.492;-97.520;2024-03-07T00:45:52;14;13;
43479;PMS5003;29067;35.492;-97.520;2024-03-07T00:48:21;14;13;
43479;PMS5003;29067;35.492;-97.520;2024-03-07T00:50:49;17;16;
43479;PMS5003;29067;35.492;-97.520;2024-03-07T00:53:18;15;13;
43479;PMS5003;29067;35.492;-97.520;2024-03-07T00:55:47;18;17;
43479;PMS5003;29067;35.492;-97.520;2024-03-07T00:58:16;15;14;
43479;PMS5003;29067;35.492;-97.520;2024-03-07T01:00:45;12;12;
43479;PMS5003;29067;35.492;-97.520;2024-03-07T01:03:16;14;13;
43479;PMS5003;29067;35.492;-97.520;2024-03-07T01:05:45;13;13;
43479;PMS5003;29067;35.492;-97.520;2024-03-07T01:08:14;18;15;
43479;PMS5003;29067;35.492;-97.520;2024-03-07T01:10:45;16;15;
43479;PMS5003;29067;35.492;-97.520;2024-03-07T01:13:14;15;14;
43479;PMS5003;29067;35.492;-97.520;2024-03-07T01:15:44;18;15;
43479;PMS5003;29067;35.492;-97.520;2024-03-07T01:18:16;16;15;
43479;PMS5003;29067;35.492;-97.520;2024-03-07T01:20:51;14;14;
43479;PMS5003;29067;35.492;-97.520;2024-03-07T01:23:26;15;14;
43479;PMS5003;29067;35.492;-97.520;2024-03-07T01:25:56;18;16;
43479;PMS5003;29067;35.492;-97.520;2024-03-07T01:28:28;16;14;
43479;PMS5003;29067;35.492;-97.520;2024-03-07T01:30:57;15;15;
43479;PMS5003;29067;35.492;-97.520;2024-03-07T01:33:28;14;14;
43479;PMS5003;29067;35.492;-97.520;2024-03-07T01:35:59;15;15;
43479;PMS5003;29067;35.492;-97.520;2024-03-07T01:38:29;15;15;
43479;PMS5003;29067;35.492;-97.520;2024-03-07T01:40:57;14;13;
43479;PMS5003;29067;35.492;-97.520;2024-03-07T01:43:28;13;13;
43479;PMS5003;29067;35.492;-97.520;2024-03-07T01:45:59;18;17;
43479;PMS5003;29067;35.492;-97.520;2024-03-07T01:48:31;21;17;
43479;PMS5003;29067;35.492;-97.520;2024-03-07T01:51:02;13;13;
43479;PMS5003;29067;35.492;-97.520;2024-03-07T01:53:45;16;14;
43479;PMS5003;29067;35.492;-97.520;2024-03-07T01:56:15;15;14;
43479;PMS5003;29067;35.492;-97.520;2024-03-07T01:58:49;16;16;
43479;PMS5003;29067;35.492;-97.520;2024-03-07T02:01:24;13;13;
43479;PMS5003;29067;35.492;-97.520;2024-03-07T02:03:57;17;16;
43479;PMS5003;29067;35.492;-97.520;2024-03-07T02:06:27;15;14;
43479;PMS5003;29067;35.492;-97.520;2024-03-07T02:09:01;16;15;
43479;PMS5003;29067;35.492;-97.520;2024-03-07T02:11:30;14;13;
43479;PMS5003;29067;35.492;-97.520;2024-03-07T02:14:02;16;14;
43479;PMS5003;29067;35.492;-97.520;2024-03-07T02:16:33;16;14;
43479;PMS5003;29067;35.492;-97.520;2024-03-07T02:19:05;15;15;
43479;PMS5003;29067;35.492;-97.520;2024-03-07T02:21:38;15;15;
43479;PMS5003;29067;35.492;-97.520;2024-03-07T02:24:08;15;15;
43479;PMS5003;29067;35.492;-97.520;2024-03-07T02:26:40;16;15;
43479;PMS5003;29067;35.492;-97.520;2024-03-07T02:29:10;13;12;
43479;PMS5003;29067;35.492;-97.520;2024-03-07T02:31:43;15;14;
43479;PMS5003;29067;35.492;-97.520;2024-03-07T02:34:13;18;16;
43479;PMS5003;29067;35.492;-97.520;2024-03-07T02:36:50;16;15;
43479;PMS5003;29067;35.492;-97.520;2024-03-07T02:39:23;19;19;
43479;PMS5003;29067;35.492;-97.520;2024-03-07T02:41:55;15;14;
43479;PMS5003;29067;35.492;-97.520;2024-03-07T02:44:26;20;18;
43479;PMS5003;29067;35.492;-97.520;2024-03-07T02:47:16;20;17;
43479;PMS5003;29067;35.492;-97.520;2024-03-07T02:49:51;19;17;
43479;PMS5003;29067;35.492;-97.520;2024-03-07T02:52:21;20;17;
43479;PMS5003;29067;35.492;-97.520;2024-03-07T02:54:52;19;17;
43479;PMS5003;29067;35.492;-97.520;2024-03-07T02:57:22;16;16;
43479;PMS5003;29067;35.492;-97.520;2024-03-07T02:59:51;18;17;
43479;PMS5003;29067;35.492;-97.520;2024-03-07T03:02:23;19;17;
43479;PMS5003;29067;35.492;-97.520;2024-03-07T03:04:54;14;14;
43479;PMS5003;29067;35.492;-97.520;2024-03-07T03:07:25;18;18;
43479;PMS5003;29067;35.492;-97.520;2024-03-07T03:09:54;18;17;
43479;PMS5003;29067;35.492;-97.520;2024-03-07T03:12:23;21;17;
43479;PMS5003;29067;35.492;-97.520;2024-03-07T03:14:52;18;17;
43479;PMS5003;29067;35.492;-97.520;2024-03-07T03:17:22;19;17;
43479;PMS5003;29067;35.492;-97.520;2024-03-07T03:19:52;20;18;
43479;PMS5003;29067;35.492;-97.520;2024-03-07T03:22:20;18;17;
43479;PMS5003;29067;35.492;-97.520;2024-03-07T03:24:49;20;18;
43479;PMS5003;29067;35.492;-97.520;2024-03-07T03:27:20;20;17;
43479;PMS5003;29067;35.492;-97.520;2024-03-07T03:29:50;22;18;
43479;PMS5003;29067;35.492;-97.520;2024-03-07T03:32:23;24;20;
43479;PMS5003;29067;35.492;-97.520;2024-03-07T03:34:51;21;20;
43479;PMS5003;29067;35.492;-97.520;2024-03-07T03:37:24;20;20;
43479;PMS5003;29067;35.492;-97.520;2024-03-07T03:39:54;21;21;
43479;PMS5003;29067;35.492;-97.520;2024-03-07T03:42:24;23;21;
43479;PMS5003;29067;35.492;-97.520;2024-03-07T03:44:53;22;22;
43479;PMS5003;29067;35.492;-97.520;2024-03-07T03:47:22;19;19;
43479;PMS5003;29067;35.492;-97.520;2024-03-07T03:49:52;25;20;
43479;PMS5003;29067;35.492;-97.520;2024-03-07T03:52:23;28;24;
43479;PMS5003;29067;35.492;-97.520;2024-03-07T03:54:57;26;24;
43479;PMS5003;29067;35.492;-97.520;2024-03-07T03:57:27;24;21;
43479;PMS5003;29067;35.492;-97.520;2024-03-07T03:59:57;23;21;
43479;PMS5003;29067;35.492;-97.520;2024-03-07T04:02:26;27;25;
43479;PMS5003;29067;35.492;-97.520;2024-03-07T04:04:55;23;22;
43479;PMS5003;29067;35.492;-97.520;2024-03-07T04:07:25;26;25;
43479;PMS5003;29067;35.492;-97.520;2024-03-07T04:09:54;25;24;
43479;PMS5003;29067;35.492;-97.520;2024-03-07T04:12:23;29;25;
43479;PMS5003;29067;35.492;-97.520;2024-03-07T04:14:53;21;21;
43479;PMS5003;29067;35.492;-97.520;2024-03-07T04:17:22;22;21;
43479;PMS5003;29067;35.492;-97.520;2024-03-07T04:19:52;30;27;
43479;PMS5003;29067;35.492;-97.520;2024-03-07T04:22:21;21;21;
43479;PMS5003;29067;35.492;-97.520;2024-03-07T04:24:49;25;25;
43479;PMS5003;29067;35.492;-97.520;2024-03-07T04:27:19;26;26;
43479;PMS5003;29067;35.492;-97.520;2024-03-07T04:29:48;27;23;
43479;PMS5003;29067;35.492;-97.520;2024-03-07T04:32:17;21;21;
43479;PMS5003;29067;35.492;-97.520;2024-03-07T04:34:46;28;26;
43479;PMS5003;29067;35.492;-97.520;2024-03-07T04:37:14;25;24;
43479;PMS5003;29067;35.492;-97.520;2024-03-07T04:39:43;31;24;
43479;PMS5003;29067;35.492;-97.520;2024-03-07T04:42:11;28;24;
43479;PMS5003;29067;35.492;-97.520;2024-03-07T04:44:40;26;25;
43479;PMS5003;29067;35.492;-97.520;2024-03-07T04:47:09;27;26;
43479;PMS5003;29067;35.492;-97.520;2024-03-07T04:49:38;23;22;
43479;PMS5003;29067;35.492;-97.520;2024-03-07T04:52:06;26;23;
43479;PMS5003;29067;35.492;-97.520;2024-03-07T04:54:34;24;24;
43479;PMS5003;29067;35.492;-97.520;2024-03-07T04:57:03;25;23;
43479;PMS5003;29067;35.492;-97.520;2024-03-07T04:59:31;24;24;
43479;PMS5003;29067;35.492;-97.520;2024-03-07T05:01:59;29;27;
43479;PMS5003;29067;35.492;-97.520;2024-03-07T05:04:28;27;26;
43479;PMS5003;29067;35.492;-97.520;2024-03-07T05:06:56;26;26;
43479;PMS5003;29067;35.492;-97.520;2024-03-07T05:09:24;29;27;
43479;PMS5003;29067;35.492;-97.520;2024-03-07T05:11:51;26;26;
43479;PMS5003;29067;35.492;-97.520;2024-03-07T05:14:19;26;26;
43479;PMS5003;29067;35.492;-97.520;2024-03-07T05:16:48;33;29;
43479;PMS5003;29067;35.492;-97.520;2024-03-07T05:19:16;31;26;
43479;PMS5003;29067;35.492;-97.520;2024-03-07T05:21:45;27;26;
43479;PMS5003;29067;35.492;-97.520;2024-03-07T05:24:13;31;28;
43479;PMS5003;29067;35.492;-97.520;2024-03-07T05:26:40;37;31;
43479;PMS5003;29067;35.492;-97.520;2024-03-07T05:29:08;27;27;
43479;PMS5003;29067;35.492;-97.520;2024-03-07T05:31:38;31;29;
43479;PMS5003;29067;35.492;-97.520;2024-03-07T05:34:07;39;34;
43479;PMS5003;29067;35.492;-97.520;2024-03-07T05:36:35;31;29;
43479;PMS5003;29067;35.492;-97.520;2024-03-07T05:39:03;35;30;
43479;PMS5003;29067;35.492;-97.520;2024-03-07T05:41:31;43;35;
43479;PMS5003;29067;35.492;-97.520;2024-03-07T05:43:59;30;28;
43479;PMS5003;29067;35.492;-97.520;2024-03-07T05:46:27;25;25;
43479;PMS5003;29067;35.492;-97.520;2024-03-07T05:48:54;25;24;
43479;PMS5003;29067;35.492;-97.520;2024-03-07T05:51:23;27;26;
43479;PMS5003;29067;35.492;-97.520;2024-03-07T05:53:50;29;25;
43479;PMS5003;29067;35.492;-97.520;2024-03-07T05:56:18;30;27;
43479;PMS5003;29067;35.492;-97.520;2024-03-07T05:58:46;22;22;
43479;PMS5003;29067;35.492;-97.520;2024-03-07T06:01:14;29;24;
43479;PMS5003;29067;35.492;-97.520;2024-03-07T06:03:41;22;22;
43479;PMS5003;29067;35.492;-97.520;2024-03-07T06:06:09;24;22;
43479;PMS5003;29067;35.492;-97.520;2024-03-07T06:08:38;19;19;
43479;PMS5003;29067;35.492;-97.520;2024-03-07T06:11:06;23;22;
43479;PMS5003;29067;35.492;-97.520;2024-03-07T06:13:34;24;24;
43479;PMS5003;29067;35.492;-97.520;2024-03-07T06:16:02;21;18;
43479;PMS5003;29067;35.492;-97.520;2024-03-07T06:18:30;25;24;
43479;PMS5003;29067;35.492;-97.520;2024-03-07T06:20:59;27;23;
43479;PMS5003;29067;35.492;-97.520;2024-03-07T06:23:27;27;22;
43479;PMS5003;29067;35.492;-97.520;2024-03-07T06:25:55;19;19;
43479;PMS5003;29067;35.492;-97.520;2024-03-07T06:28:22;22;20;
43479;PMS5003;29067;35.492;-97.520;2024-03-07T06:30:50;29;25;
43479;PMS5003;29067;35.492;-97.520;2024-03-07T06:33:18;23;22;
43479;PMS5003;29067;35.492;-97.520;2024-03-07T06:35:46;26;23;
43479;PMS5003;29067;35.492;-97.520;2024-03-07T06:38:14;23;22;
43479;PMS5003;29067;35.492;-97.520;2024-03-07T06:40:42;30;25;
43479;PMS5003;29067;35.492;-97.520;2024-03-07T06:43:10;24;22;
43479;PMS5003;29067;35.492;-97.520;2024-03-07T06:45:39;26;23;
43479;PMS5003;29067;35.492;-97.520;2024-03-07T06:48:07;29;26;
43479;PMS5003;29067;35.492;-97.520;2024-03-07T06:50:36;31;27;
43479;PMS5003;29067;35.492;-97.520;2024-03-07T06:53:05;25;23;
43479;PMS5003;29067;35.492;-97.520;2024-03-07T06:55:33;23;22;
43479;PMS5003;29067;35.492;-97.520;2024-03-07T06:58:02;26;25;
43479;PMS5003;29067;35.492;-97.520;2024-03-07T07:00:30;35;28;
43479;PMS5003;29067;35.492;-97.520;2024-03-07T07:02:58;31;26;
43479;PMS5003;29067;35.492;-97.520;2024-03-07T07:05:26;27;26;
43479;PMS5003;29067;35.492;-97.520;2024-03-07T07:07:54;26;25;
43479;PMS5003;29067;35.492;-97.520;2024-03-07T07:10:23;22;20;
43479;PMS5003;29067;35.492;-97.520;2024-03-07T07:12:51;25;21;
43479;PMS5003;29067;35.492;-97.520;2024-03-07T07:15:19;23;21;
43479;PMS5003;29067;35.492;-97.520;2024-03-07T07:17:48;26;25;
43479;PMS5003;29067;35.492;-97.520;2024-03-07T07:20:16;28;24;
43479;PMS5003;29067;35.492;-97.520;2024-03-07T07:22:45;27;24;
43479;PMS5003;29067;35.492;-97.520;2024-03-07T07:25:14;28;26;
43479;PMS5003;29067;35.492;-97.520;2024-03-07T07:27:43;24;23;
43479;PMS5003;29067;35.492;-97.520;2024-03-07T07:30:12;28;26;
43479;PMS5003;29067;35.492;-97.520;2024-03-07T07:32:42;29;25;
43479;PMS5003;29067;35.492;-97.520;2024-03-07T07:35:11;31;26;
43479;PMS5003;29067;35.492;-97.520;2024-03-07T07:37:40;22;20;
43479;PMS5003;29067;35.492;-97.520;2024-03-07T07:40:09;28;21;
43479;PMS5003;29067;35.492;-97.520;2024-03-07T07:42:39;29;24;
43479;PMS5003;29067;35.492;-97.520;2024-03-07T07:45:07;27;25;
43479;PMS5003;29067;35.492;-97.520;2024-03-07T07:47:38;29;26;
43479;PMS5003;29067;35.492;-97.520;2024-03-07T07:51:11;27;26;
43479;PMS5003;29067;35.492;-97.520;2024-03-07T07:53:39;27;25;
43479;PMS5003;29067;35.492;-97.520;2024-03-07T07:56:07;28;24;
43479;PMS5003;29067;35.492;-97.520;2024-03-07T07:58:36;25;23;
43479;PMS5003;29067;35.492;-97.520;2024-03-07T08:01:04;25;23;
43479;PMS5003;29067;35.492;-97.520;2024-03-07T08:03:31;23;22;
43479;PMS5003;29067;35.492;-97.520;2024-03-07T08:05:59;35;28;
43479;PMS5003;29067;35.492;-97.520;2024-03-07T08:08:28;30;28;
43479;PMS5003;29067;35.492;-97.520;2024-03-07T08:10:55;28;27;
43479;PMS5003;29067;35.492;-97.520;2024-03-07T08:13:23;28;21;
43479;PMS5003;29067;35.492;-97.520;2024-03-07T08:15:51;28;23;
43479;PMS5003;29067;35.492;-97.520;2024-03-07T08:18:19;27;26;
43479;PMS5003;29067;35.492;-97.520;2024-03-07T08:20:47;26;25;
43479;PMS5003;29067;35.492;-97.520;2024-03-07T08:23:15;39;34;
43479;PMS5003;29067;35.492;-97.520;2024-03-07T08:25:43;35;31;
43479;PMS5003;29067;35.492;-97.520;2024-03-07T08:28:11;33;29;
43479;PMS5003;29067;35.492;-97.520;2024-03-07T08:30:40;33;32;
43479;PMS5003;29067;35.492;-97.520;2024-03-07T08:33:07;39;33;
43479;PMS5003;29067;35.492;-97.520;2024-03-07T08:35:35;29;28;
43479;PMS5003;29067;35.492;-97.520;2024-03-07T08:38:03;27;25;
43479;PMS5003;29067;35.492;-97.520;2024-03-07T08:40:31;30;30;
43479;PMS5003;29067;35.492;-97.520;2024-03-07T08:42:59;33;30;
43479;PMS5003;29067;35.492;-97.520;2024-03-07T08:45:28;40;31;
43479;PMS5003;29067;35.492;-97.520;2024-03-07T08:47:56;27;26;
43479;PMS5003;29067;35.492;-97.520;2024-03-07T08:50:25;36;29;
43479;PMS5003;29067;35.492;-97.520;2024-03-07T08:52:54;37;29;
43479;PMS5003;29067;35.492;-97.520;2024-03-07T08:55:23;26;24;
43479;PMS5003;29067;35.492;-97.520;2024-03-07T08:57:52;30;29;
43479;PMS5003;29067;35.492;-97.520;2024-03-07T09:00:20;41;34;
43479;PMS5003;29067;35.492;-97.520;2024-03-07T09:02:49;32;28;
43479;PMS5003;29067;35.492;-97.520;2024-03-07T09:05:18;32;29;
43479;PMS5003;29067;35.492;-97.520;2024-03-07T09:07:47;36;34;
43479;PMS5003;29067;35.492;-97.520;2024-03-07T09:10:16;37;34;
43479;PMS5003;29067;35.492;-97.520;2024-03-07T09:12:44;37;34;
43479;PMS5003;29067;35.492;-97.520;2024-03-07T09:15:14;37;33;
43479;PMS5003;29067;35.492;-97.520;2024-03-07T09:17:42;31;28;
43479;PMS5003;29067;35.492;-97.520;2024-03-07T09:20:10;30;28;
43479;PMS5003;29067;35.492;-97.520;2024-03-07T09:22:38;30;29;
43479;PMS5003;29067;35.492;-97.520;2024-03-07T09:25:07;40;32;
43479;PMS5003;29067;35.492;-97.520;2024-03-07T09:27:36;28;26;
43479;PMS5003;29067;35.492;-97.520;2024-03-07T09:30:04;36;32;
43479;PMS5003;29067;35.492;-97.520;2024-03-07T09:32:33;34;29;
43479;PMS5003;29067;35.492;-97.520;2024-03-07T09:35:00;37;30;
43479;PMS5003;29067;35.492;-97.520;2024-03-07T09:37:28;31;30;
43479;PMS5003;29067;35.492;-97.520;2024-03-07T09:39:56;29;27;
43479;PMS5003;29067;35.492;-97.520;2024-03-07T09:42:25;37;31;
43479;PMS5003;29067;35.492;-97.520;2024-03-07T09:44:53;32;28;
43479;PMS5003;29067;35.492;-97.520;2024-03-07T09:47:23;39;30;
43479;PMS5003;29067;35.492;-97.520;2024-03-07T09:49:51;31;29;
43479;PMS5003;29067;35.492;-97.520;2024-03-07T09:52:21;27;27;
43479;PMS5003;29067;35.492;-97.520;2024-03-07T09:54:49;34;31;
43479;PMS5003;29067;35.492;-97.520;2024-03-07T09:57:18;36;32;
43479;PMS5003;29067;35.492;-97.520;2024-03-07T09:59:46;33;29;
43479;PMS5003;29067;35.492;-97.520;2024-03-07T10:02:15;35;31;
43479;PMS5003;29067;35.492;-97.520;2024-03-07T10:04:44;35;30;
43479;PMS5003;29067;35.492;-97.520;2024-03-07T10:07:15;33;30;
43479;PMS5003;29067;35.492;-97.520;2024-03-07T10:09:44;33;28;
43479;PMS5003;29067;35.492;-97.520;2024-03-07T10:12:12;39;32;
43479;PMS5003;29067;35.492;-97.520;2024-03-07T10:14:47;35;29;
43479;PMS5003;29067;35.492;-97.520;2024-03-07T10:17:16;33;30;
43479;PMS5003;29067;35.492;-97.520;2024-03-07T10:19:46;36;32;
43479;PMS5003;29067;35.492;-97.520;2024-03-07T10:22:15;28;26;
43479;PMS5003;29067;35.492;-97.520;2024-03-07T10:24:49;39;33;
43479;PMS5003;29067;35.492;-97.520;2024-03-07T10:27:18;36;30;
43479;PMS5003;29067;35.492;-97.520;2024-03-07T10:29:47;28;27;
43479;PMS5003;29067;35.492;-97.520;2024-03-07T10:32:18;29;28;
43479;PMS5003;29067;35.492;-97.520;2024-03-07T10:34:46;29;29;
43479;PMS5003;29067;35.492;-97.520;2024-03-07T10:37:14;30;25;
43479;PMS5003;29067;35.492;-97.520;2024-03-07T10:39:43;31;26;
43479;PMS5003;29067;35.492;-97.520;2024-03-07T10:42:12;25;25;
43479;PMS5003;29067;35.492;-97.520;2024-03-07T10:44:42;26;23;
43479;PMS5003;29067;35.492;-97.520;2024-03-07T10:47:12;26;23;
43479;PMS5003;29067;35.492;-97.520;2024-03-07T10:49:48;30;25;
43479;PMS5003;29067;35.492;-97.520;2024-03-07T10:52:28;29;25;
43479;PMS5003;29067;35.492;-97.520;2024-03-07T10:55:06;20;19;
43479;PMS5003;29067;35.492;-97.520;2024-03-07T10:57:44;29;26;
43479;PMS5003;29067;35.492;-97.520;2024-03-07T11:00:16;27;24;
43479;PMS5003;29067;35.492;-97.520;2024-03-07T11:02:46;27;24;
43479;PMS5003;29067;35.492;-97.520;2024-03-07T11:05:16;24;22;
43479;PMS5003;29067;35.492;-97.520;2024-03-07T11:07:44;29;26;
43479;PMS5003;29067;35.492;-97.520;2024-03-07T11:10:13;28;25;
43479;PMS5003;29067;35.492;-97.520;2024-03-07T11:12:42;25;22;
43479;PMS5003;29067;35.492;-97.520;2024-03-07T11:15:11;25;24;
43479;PMS5003;29067;35.492;-97.520;2024-03-07T11:17:42;29;23;
43479;PMS5003;29067;35.492;-97.520;2024-03-07T11:20:19;24;23;
43479;PMS5003;29067;35.492;-97.520;2024-03-07T11:22:47;22;20;
43479;PMS5003;29067;35.492;-97.520;2024-03-07T11:25:17;26;24;
43479;PMS5003;29067;35.492;-97.520;2024-03-07T11:27:51;28;24;
43479;PMS5003;29067;35.492;-97.520;2024-03-07T11:30:22;31;25;
43479;PMS5003;29067;35.492;-97.520;2024-03-07T11:32:51;30;24;
43479;PMS5003;29067;35.492;-97.520;2024-03-07T11:35:20;23;20;
43479;PMS5003;29067;35.492;-97.520;2024-03-07T11:37:58;24;22;
43479;PMS5003;29067;35.492;-97.520;2024-03-07T11:40:59;24;24;
43479;PMS5003;29067;35.492;-97.520;2024-03-07T11:43:27;27;25;
43479;PMS5003;29067;35.492;-97.520;2024-03-07T11:45:56;27;24;
43479;PMS5003;29067;35.492;-97.520;2024-03-07T11:48:24;28;27;
43479;PMS5003;29067;35.492;-97.520;2024-03-07T11:50:52;26;24;
43479;PMS5003;29067;35.492;-97.520;2024-03-07T11:53:20;28;24;
43479;PMS5003;29067;35.492;-97.520;2024-03-07T11:55:49;25;23;
43479;PMS5003;29067;35.492;-97.520;2024-03-07T11:58:17;23;21;
43479;PMS5003;29067;35.492;-97.520;2024-03-07T12:02:59;25;24;
43479;PMS5003;29067;35.492;-97.520;2024-03-07T12:05:31;26;20;
43479;PMS5003;29067;35.492;-97.520;2024-03-07T12:08:00;18;17;
43479;PMS5003;29067;35.492;-97.520;2024-03-07T12:10:28;22;20;
43479;PMS5003;29067;35.492;-97.520;2024-03-07T12:12:56;17;16;
43479;PMS5003;29067;35.492;-97.520;2024-03-07T12:15:24;19;17;
43479;PMS5003;29067;35.492;-97.520;2024-03-07T12:17:52;21;17;
43479;PMS5003;29067;35.492;-97.520;2024-03-07T12:20:20;16;16;
43479;PMS5003;29067;35.492;-97.520;2024-03-07T12:22:49;17;13;
43479;PMS5003;29067;35.492;-97.520;2024-03-07T12:25:17;16;14;
43479;PMS5003;29067;35.492;-97.520;2024-03-07T12:27:45;15;15;
43479;PMS5003;29067;35.492;-97.520;2024-03-07T12:30:15;14;14;
43479;PMS5003;29067;35.492;-97.520;2024-03-07T12:32:46;13;12;
43479;PMS5003;29067;35.492;-97.520;2024-03-07T12:35:15;17;14;
43479;PMS5003;29067;35.492;-97.520;2024-03-07T12:37:43;14;13;
43479;PMS5003;29067;35.492;-97.520;2024-03-07T12:40:12;14;13;
43479;PMS5003;29067;35.492;-97.520;2024-03-07T12:42:40;14;14;
43479;PMS5003;29067;35.492;-97.520;2024-03-07T12:45:08;15;14;
43479;PMS5003;29067;35.492;-97.520;2024-03-07T12:47:37;13;12;
43479;PMS5003;29067;35.492;-97.520;2024-03-07T12:50:06;10;10;
43479;PMS5003;29067;35.492;-97.520;2024-03-07T12:52:34;17;15;
43479;PMS5003;29067;35.492;-97.520;2024-03-07T12:55:03;20;17;
43479;PMS5003;29067;35.492;-97.520;2024-03-07T12:57:31;11;11;
43479;PMS5003;29067;35.492;-97.520;2024-03-07T13:00:00;12;12;
43479;PMS5003;29067;35.492;-97.520;2024-03-07T13:02:28;17;13;
43479;PMS5003;29067;35.492;-97.520;2024-03-07T13:04:56;13;13;
43479;PMS5003;29067;35.492;-97.520;2024-03-07T13:07:24;11;11;
43479;PMS5003;29067;35.492;-97.520;2024-03-07T13:09:52;13;12;
43479;PMS5003;29067;35.492;-97.520;2024-03-07T13:12:20;11;11;
43479;PMS5003;29067;35.492;-97.520;2024-03-07T13:14:48;13;13;
43479;PMS5003;29067;35.492;-97.520;2024-03-07T13:17:16;13;11;
43479;PMS5003;29067;35.492;-97.520;2024-03-07T13:19:44;9;9;
43479;PMS5003;29067;35.492;-97.520;2024-03-07T13:22:12;14;13;
43479;PMS5003;29067;35.492;-97.520;2024-03-07T13:24:40;16;13;
43479;PMS5003;29067;35.492;-97.520;2024-03-07T13:27:08;11;11;
43479;PMS5003;29067;35.492;-97.520;2024-03-07T13:29:36;18;16;
43479;PMS5003;29067;35.492;-97.520;2024-03-07T13:32:13;13;12;
43479;PMS5003;29067;35.492;-97.520;2024-03-07T13:34:41;10;10;
43479;PMS5003;29067;35.492;-97.520;2024-03-07T13:37:10;14;13;
43479;PMS5003;29067;35.492;-97.520;2024-03-07T13:39:37;12;11;
43479;PMS5003;29067;35.492;-97.520;2024-03-07T13:42:06;12;11;
43479;PMS5003;29067;35.492;-97.520;2024-03-07T13:44:33;14;13;
43479;PMS5003;29067;35.492;-97.520;2024-03-07T13:47:02;12;11;
43479;PMS5003;29067;35.492;-97.520;2024-03-07T13:49:30;12;11;
43479;PMS5003;29067;35.492;-97.520;2024-03-07T13:51:58;13;12;
43479;PMS5003;29067;35.492;-97.520;2024-03-07T13:54:26;10;8;
43479;PMS5003;29067;35.492;-97.520;2024-03-07T13:56:56;14;11;
43479;PMS5003;29067;35.492;-97.520;2024-03-07T13:59:43;12;10;
43479;PMS5003;29067;35.492;-97.520;2024-03-07T14:02:41;10;9;
43479;PMS5003;29067;35.492;-97.520;2024-03-07T14:06:18;11;11;
43479;PMS5003;29067;35.492;-97.520;2024-03-07T14:08:56;12;11;
43479;PMS5003;29067;35.492;-97.520;2024-03-07T14:12:16;12;11;
43479;PMS5003;29067;35.492;-97.520;2024-03-07T14:15:36;13;10;
43479;PMS5003;29067;35.492;-97.520;2024-03-07T14:18:48;12;11;
43479;PMS5003;29067;35.492;-97.520;2024-03-07T14:21:44;14;13;
43479;PMS5003;29067;35.492;-97.520;2024-03-07T14:24:34;14;13;
43479;PMS5003;29067;35.492;-97.520;2024-03-07T14:27:19;11;10;
43479;PMS5003;29067;35.492;-97.520;2024-03-07T14:29:55;11;10;
43479;PMS5003;29067;35.492;-97.520;2024-03-07T14:32:38;12;10;
43479;PMS5003;29067;35.492;-97.520;2024-03-07T14:35:09;10;10;
43479;PMS5003;29067;35.492;-97.520;2024-03-07T14:37:46;10;9;
43479;PMS5003;29067;35.492;-97.520;2024-03-07T14:40:21;9;9;
43479;PMS5003;29067;35.492;-97.520;2024-03-07T14:42:49;14;13;
43479;PMS5003;29067;35.492;-97.520;2024-03-07T14:45:21;11;10;
43479;PMS5003;29067;35.492;-97.520;2024-03-07T14:47:54;8;7;
43479;PMS5003;29067;35.492;-97.520;2024-03-07T14:50:22;11;10;
43479;PMS5003;29067;35.492;-97.520;2024-03-07T14:52:54;9;7;
43479;PMS5003;29067;35.492;-97.520;2024-03-07T14:55:22;8;7;
43479;PMS5003;29067;35.492;-97.520;2024-03-07T14:57:50;7;7;
43479;PMS5003;29067;35.492;-97.520;2024-03-07T15:00:18;8;6;
43479;PMS5003;29067;35.492;-97.520;2024-03-07T15:02:47;6;6;
43479;PMS5003;29067;35.492;-97.520;2024-03-07T15:05:16;6;6;
43479;PMS5003;29067;35.492;-97.520;2024-03-07T15:07:44;8;6;
43479;PMS5003;29067;35.492;-97.520;2024-03-07T15:10:15;8;7;
43479;PMS5003;29067;35.492;-97.520;2024-03-07T15:12:45;5;5;
43479;PMS5003;29067;35.492;-97.520;2024-03-07T15:15:14;6;5;
43479;PMS5003;29067;35.492;-97.520;2024-03-07T15:17:42;5;5;
43479;PMS5003;29067;35.492;-97.520;2024-03-07T15:20:10;4;4;
43479;PMS5003;29067;35.492;-97.520;2024-03-07T15:22:39;6;5;
43479;PMS5003;29067;35.492;-97.520;2024-03-07T15:25:07;5;4;
43479;PMS5003;29067;35.492;-97.520;2024-03-07T15:27:35;4;4;
43479;PMS5003;29067;35.492;-97.520;2024-03-07T15:30:06;3;3;
43479;PMS5003;29067;35.492;-97.520;2024-03-07T15:32:34;3;3;
43479;PMS5003;29067;35.492;-97.520;2024-03-07T15:35:01;3;3;
43479;PMS5003;29067;35.492;-97.520;2024-03-07T15:37:30;4;3;
43479;PMS5003;29067;35.492;-97.520;2024-03-07T15:39:58;6;3;
43479;PMS5003;29067;35.492;-97.520;2024-03-07T15:42:25;3;3;
43479;PMS5003;29067;35.492;-97.520;2024-03-07T15:44:53;2;2;
43479;PMS5003;29067;35.492;-97.520;2024-03-07T15:47:21;3;2;
43479;PMS5003;29067;35.492;-97.520;2024-03-07T15:49:49;4;4;
43479;PMS5003;29067;35.492;-97.520;2024-03-07T15:52:17;4;3;
43479;PMS5003;29067;35.492;-97.520;2024-03-07T15:54:44;2;2;
43479;PMS5003;29067;35.492;-97.520;2024-03-07T15:57:12;2;2;
43479;PMS5003;29067;35.492;-97.520;2024-03-07T15:59:42;1;1;
43479;PMS5003;29067;35.492;-97.520;2024-03-07T16:02:10;1;1;
43479;PMS5003;29067;35.492;-97.520;2024-03-07T16:04:38;1;1;
43479;PMS5003;29067;35.492;-97.520;2024-03-07T16:07:06;2;2;
43479;PMS5003;29067;35.492;-97.520;2024-03-07T16:09:34;2;1;
43479;PMS5003;29067;35.492;-97.520;2024-03-07T16:12:02;1;1;